HU-0043 weather

Mórahalom Repülőtér
Hungary

Public forecast

Using degrees Celsius for public forecast. Weather courtesy of forecast.io.

METAR (pilot weather report)

Report is more than 2 hours old.

Closest report is Szeged Airfield, 5.9 nm (10.9 km) E. Retrieved 2019/06/25 11:45 UTC (3 hours ago):

LHUD 251145Z 16004KT 9999 SCT036 30/21 Q1023

TAF (pilot weather forecast)

Forecast is more than 12 hours old.

Closest forecast is Kecskemét Airport, 40.8 nm (75.6 km) NNW. Retrieved 2017/10/21 15:33 UTC (2 years ago):

TAF TAF LHKE 211415Z 2115/2224 29004KT CAVOK BECMG 2117/2119 8000 NSC BECMG 2119/2122 5000 BR MIBCFG NSC BECMG 2122/2224 VRB03KT 3000 BR